sensor_id;sensor_type;location;lat;lon;timestamp;temperature;humidity
46490;DHT22;32204;49.160;8.580;2023-03-23T00:01:14;15.10;99.90
46490;DHT22;32204;49.160;8.580;2023-03-23T00:03:45;15.00;99.90
46490;DHT22;32204;49.160;8.580;2023-03-23T00:06:11;15.00;99.90
46490;DHT22;32204;49.160;8.580;2023-03-23T00:08:43;15.00;99.90
46490;DHT22;32204;49.160;8.580;2023-03-23T00:11:19;15.00;99.90
46490;DHT22;32204;49.160;8.580;2023-03-23T00:13:48;15.00;99.90
46490;DHT22;32204;49.160;8.580;2023-03-23T00:16:17;15.10;99.90
46490;DHT22;32204;49.160;8.580;2023-03-23T00:18:48;15.10;99.90
46490;DHT22;32204;49.160;8.580;2023-03-23T00:21:18;15.10;99.90
46490;DHT22;32204;49.160;8.580;2023-03-23T00:23:44;15.10;99.90
46490;DHT22;32204;49.160;8.580;2023-03-23T00:26:11;15.10;99.90
46490;DHT22;32204;49.160;8.580;2023-03-23T00:28:37;15.10;99.90
46490;DHT22;32204;49.160;8.580;2023-03-23T00:31:06;15.10;99.90
46490;DHT22;32204;49.160;8.580;2023-03-23T00:33:34;15.10;99.90
46490;DHT22;32204;49.160;8.580;2023-03-23T00:36:04;15.10;99.90
46490;DHT22;32204;49.160;8.580;2023-03-23T00:38:31;15.10;99.90
46490;DHT22;32204;49.160;8.580;2023-03-23T00:40:57;15.10;99.90
46490;DHT22;32204;49.160;8.580;2023-03-23T00:43:24;15.10;99.90
46490;DHT22;32204;49.160;8.580;2023-03-23T00:45:54;15.10;99.90
46490;DHT22;32204;49.160;8.580;2023-03-23T00:48:24;15.00;99.90
46490;DHT22;32204;49.160;8.580;2023-03-23T00:50:50;15.00;99.90
46490;DHT22;32204;49.160;8.580;2023-03-23T00:53:17;15.00;99.90
46490;DHT22;32204;49.160;8.580;2023-03-23T00:55:44;15.00;99.90
46490;DHT22;32204;49.160;8.580;2023-03-23T00:58:11;15.10;99.90
46490;DHT22;32204;49.160;8.580;2023-03-23T01:00:37;15.10;99.90
46490;DHT22;32204;49.160;8.580;2023-03-23T01:03:03;15.10;99.90
46490;DHT22;32204;49.160;8.580;2023-03-23T01:05:33;15.10;99.90
46490;DHT22;32204;49.160;8.580;2023-03-23T01:07:59;15.10;99.90
46490;DHT22;32204;49.160;8.580;2023-03-23T01:10:25;15.10;99.90
46490;DHT22;32204;49.160;8.580;2023-03-23T01:12:52;15.10;99.90
46490;DHT22;32204;49.160;8.580;2023-03-23T01:15:18;15.10;99.90
46490;DHT22;32204;49.160;8.580;2023-03-23T01:17:44;15.20;99.90
46490;DHT22;32204;49.160;8.580;2023-03-23T01:20:12;15.20;99.90
46490;DHT22;32204;49.160;8.580;2023-03-23T01:22:39;15.20;99.90
46490;DHT22;32204;49.160;8.580;2023-03-23T01:25:06;15.20;99.90
46490;DHT22;32204;49.160;8.580;2023-03-23T01:27:31;15.20;99.90
46490;DHT22;32204;49.160;8.580;2023-03-23T01:29:57;15.30;99.90
46490;DHT22;32204;49.160;8.580;2023-03-23T01:32:23;15.20;99.90
46490;DHT22;32204;49.160;8.580;2023-03-23T01:34:48;15.30;99.90
46490;DHT22;32204;49.160;8.580;2023-03-23T01:37:14;15.30;99.90
46490;DHT22;32204;49.160;8.580;2023-03-23T01:39:41;15.30;99.90
46490;DHT22;32204;49.160;8.580;2023-03-23T01:42:08;15.20;99.90
46490;DHT22;32204;49.160;8.580;2023-03-23T01:47:00;15.30;99.90
46490;DHT22;32204;49.160;8.580;2023-03-23T01:49:46;15.30;99.90
46490;DHT22;32204;49.160;8.580;2023-03-23T01:52:20;15.30;99.90
46490;DHT22;32204;49.160;8.580;2023-03-23T01:54:50;15.30;99.90
46490;DHT22;32204;49.160;8.580;2023-03-23T01:57:17;15.30;99.90
46490;DHT22;32204;49.160;8.580;2023-03-23T01:59:48;15.20;99.90
46490;DHT22;32204;49.160;8.580;2023-03-23T02:02:15;15.20;99.90
46490;DHT22;32204;49.160;8.580;2023-03-23T02:04:41;15.20;99.90
46490;DHT22;32204;49.160;8.580;2023-03-23T02:07:08;15.20;99.90
46490;DHT22;32204;49.160;8.580;2023-03-23T02:09:34;15.20;99.90
46490;DHT22;32204;49.160;8.580;2023-03-23T02:12:00;15.30;99.90
46490;DHT22;32204;49.160;8.580;2023-03-23T02:14:27;15.30;99.90
46490;DHT22;32204;49.160;8.580;2023-03-23T02:17:15;15.20;99.90
46490;DHT22;32204;49.160;8.580;2023-03-23T02:22:54;15.10;1.00
46490;DHT22;32204;49.160;8.580;2023-03-23T02:28:10;15.00;99.90
46490;DHT22;32204;49.160;8.580;2023-03-23T02:31:22;14.80;99.90
46490;DHT22;32204;49.160;8.580;2023-03-23T02:36:44;14.20;1.00
46490;DHT22;32204;49.160;8.580;2023-03-23T02:41:47;14.20;1.00
46490;DHT22;32204;49.160;8.580;2023-03-23T02:44:14;14.20;7.50
46490;DHT22;32204;49.160;8.580;2023-03-23T02:46:42;14.10;1.00
46490;DHT22;32204;49.160;8.580;2023-03-23T02:49:10;14.10;99.90
46490;DHT22;32204;49.160;8.580;2023-03-23T02:51:37;14.10;99.90
46490;DHT22;32204;49.160;8.580;2023-03-23T02:54:04;14.20;1.00
46490;DHT22;32204;49.160;8.580;2023-03-23T02:56:31;14.30;1.00
46490;DHT22;32204;49.160;8.580;2023-03-23T02:58:58;14.50;99.90
46490;DHT22;32204;49.160;8.580;2023-03-23T03:04:11;14.60;99.90
46490;DHT22;32204;49.160;8.580;2023-03-23T03:09:57;14.70;1.00
46490;DHT22;32204;49.160;8.580;2023-03-23T03:12:58;14.80;1.00
46490;DHT22;32204;49.160;8.580;2023-03-23T03:15:51;14.80;1.00
46490;DHT22;32204;49.160;8.580;2023-03-23T03:18:23;14.80;1.00
46490;DHT22;32204;49.160;8.580;2023-03-23T03:20:54;14.80;1.00
46490;DHT22;32204;49.160;8.580;2023-03-23T03:23:22;14.80;1.00
46490;DHT22;32204;49.160;8.580;2023-03-23T03:25:50;14.90;1.00
46490;DHT22;32204;49.160;8.580;2023-03-23T03:28:17;14.90;1.00
46490;DHT22;32204;49.160;8.580;2023-03-23T03:30:49;15.00;1.00
46490;DHT22;32204;49.160;8.580;2023-03-23T03:33:17;15.00;99.90
46490;DHT22;32204;49.160;8.580;2023-03-23T03:35:45;15.00;99.90
46490;DHT22;32204;49.160;8.580;2023-03-23T03:38:12;15.00;99.90
46490;DHT22;32204;49.160;8.580;2023-03-23T03:40:38;15.00;99.90
46490;DHT22;32204;49.160;8.580;2023-03-23T03:43:04;15.00;99.90
46490;DHT22;32204;49.160;8.580;2023-03-23T03:45:31;15.00;99.90
46490;DHT22;32204;49.160;8.580;2023-03-23T03:47:56;15.00;99.90
46490;DHT22;32204;49.160;8.580;2023-03-23T03:50:22;15.00;99.90
46490;DHT22;32204;49.160;8.580;2023-03-23T03:52:48;15.00;99.90
46490;DHT22;32204;49.160;8.580;2023-03-23T03:55:14;15.10;99.90
46490;DHT22;32204;49.160;8.580;2023-03-23T03:57:40;15.00;99.90
46490;DHT22;32204;49.160;8.580;2023-03-23T04:00:08;15.10;99.90
46490;DHT22;32204;49.160;8.580;2023-03-23T04:02:42;15.10;99.90
46490;DHT22;32204;49.160;8.580;2023-03-23T04:05:08;15.20;99.90
46490;DHT22;32204;49.160;8.580;2023-03-23T04:07:36;15.20;99.90
46490;DHT22;32204;49.160;8.580;2023-03-23T04:10:05;15.20;99.90
46490;DHT22;32204;49.160;8.580;2023-03-23T04:12:31;15.30;99.90
46490;DHT22;32204;49.160;8.580;2023-03-23T04:14:57;15.40;99.90
46490;DHT22;32204;49.160;8.580;2023-03-23T04:17:23;15.30;99.90
46490;DHT22;32204;49.160;8.580;2023-03-23T04:19:51;15.40;99.90
46490;DHT22;32204;49.160;8.580;2023-03-23T04:22:17;15.30;99.90
46490;DHT22;32204;49.160;8.580;2023-03-23T04:24:43;15.30;99.90
46490;DHT22;32204;49.160;8.580;2023-03-23T04:27:08;15.30;99.90
46490;DHT22;32204;49.160;8.580;2023-03-23T04:29:34;15.30;99.90
46490;DHT22;32204;49.160;8.580;2023-03-23T04:32:00;15.40;99.90
46490;DHT22;32204;49.160;8.580;2023-03-23T04:34:27;15.30;99.90
46490;DHT22;32204;49.160;8.580;2023-03-23T04:36:53;15.30;99.90
46490;DHT22;32204;49.160;8.580;2023-03-23T04:39:19;15.40;99.90
46490;DHT22;32204;49.160;8.580;2023-03-23T04:41:44;15.40;99.90
46490;DHT22;32204;49.160;8.580;2023-03-23T04:44:11;15.40;99.90
46490;DHT22;32204;49.160;8.580;2023-03-23T04:46:43;15.40;99.90
46490;DHT22;32204;49.160;8.580;2023-03-23T04:49:10;15.40;99.90
46490;DHT22;32204;49.160;8.580;2023-03-23T04:51:36;15.40;99.90
46490;DHT22;32204;49.160;8.580;2023-03-23T04:54:04;15.40;99.90
46490;DHT22;32204;49.160;8.580;2023-03-23T04:56:30;15.40;1.00
46490;DHT22;32204;49.160;8.580;2023-03-23T04:58:55;15.40;1.00
46490;DHT22;32204;49.160;8.580;2023-03-23T05:01:21;15.40;1.00
46490;DHT22;32204;49.160;8.580;2023-03-23T05:03:46;15.40;1.00
46490;DHT22;32204;49.160;8.580;2023-03-23T05:06:13;15.30;1.00
46490;DHT22;32204;49.160;8.580;2023-03-23T05:08:38;15.30;1.00
46490;DHT22;32204;49.160;8.580;2023-03-23T05:11:05;15.30;99.90
46490;DHT22;32204;49.160;8.580;2023-03-23T05:13:32;15.20;99.90
46490;DHT22;32204;49.160;8.580;2023-03-23T05:15:58;15.20;99.90
46490;DHT22;32204;49.160;8.580;2023-03-23T05:18:27;15.20;99.90
46490;DHT22;32204;49.160;8.580;2023-03-23T05:20:54;15.10;11.00
46490;DHT22;32204;49.160;8.580;2023-03-23T05:23:20;15.00;1.00
46490;DHT22;32204;49.160;8.580;2023-03-23T05:25:54;14.90;99.90
46490;DHT22;32204;49.160;8.580;2023-03-23T05:28:20;14.60;1.00
46490;DHT22;32204;49.160;8.580;2023-03-23T05:30:47;14.50;99.90
46490;DHT22;32204;49.160;8.580;2023-03-23T05:33:13;14.40;1.00
46490;DHT22;32204;49.160;8.580;2023-03-23T05:35:38;14.40;1.00
46490;DHT22;32204;49.160;8.580;2023-03-23T05:38:05;14.40;99.90
46490;DHT22;32204;49.160;8.580;2023-03-23T05:40:30;14.40;1.00
46490;DHT22;32204;49.160;8.580;2023-03-23T05:42:56;14.30;1.00
46490;DHT22;32204;49.160;8.580;2023-03-23T05:45:24;14.30;99.90
46490;DHT22;32204;49.160;8.580;2023-03-23T05:47:51;14.30;99.90
46490;DHT22;32204;49.160;8.580;2023-03-23T05:50:17;14.30;1.00
46490;DHT22;32204;49.160;8.580;2023-03-23T05:52:43;14.30;1.00
46490;DHT22;32204;49.160;8.580;2023-03-23T05:55:09;14.30;99.90
46490;DHT22;32204;49.160;8.580;2023-03-23T05:57:35;14.30;99.90
46490;DHT22;32204;49.160;8.580;2023-03-23T06:00:01;14.30;99.90
46490;DHT22;32204;49.160;8.580;2023-03-23T06:02:37;14.30;99.90
46490;DHT22;32204;49.160;8.580;2023-03-23T06:05:03;14.30;99.90
46490;DHT22;32204;49.160;8.580;2023-03-23T06:07:28;14.30;99.90
46490;DHT22;32204;49.160;8.580;2023-03-23T06:09:54;14.40;99.90
46490;DHT22;32204;49.160;8.580;2023-03-23T06:12:20;14.40;99.90
46490;DHT22;32204;49.160;8.580;2023-03-23T06:14:48;14.50;1.00
46490;DHT22;32204;49.160;8.580;2023-03-23T06:17:15;14.50;1.00
46490;DHT22;32204;49.160;8.580;2023-03-23T06:19:42;14.50;38.30
46490;DHT22;32204;49.160;8.580;2023-03-23T06:22:09;14.50;99.90
46490;DHT22;32204;49.160;8.580;2023-03-23T06:24:34;14.50;1.00
46490;DHT22;32204;49.160;8.580;2023-03-23T06:27:00;14.40;1.00
46490;DHT22;32204;49.160;8.580;2023-03-23T06:29:26;14.50;1.00
46490;DHT22;32204;49.160;8.580;2023-03-23T06:31:55;14.50;1.00
46490;DHT22;32204;49.160;8.580;2023-03-23T06:34:22;14.60;99.90
46490;DHT22;32204;49.160;8.580;2023-03-23T06:36:48;14.60;99.90
46490;DHT22;32204;49.160;8.580;2023-03-23T06:39:14;14.60;1.00
46490;DHT22;32204;49.160;8.580;2023-03-23T06:41:40;14.70;1.00
46490;DHT22;32204;49.160;8.580;2023-03-23T06:44:05;14.70;1.00
46490;DHT22;32204;49.160;8.580;2023-03-23T06:46:32;14.70;99.90
46490;DHT22;32204;49.160;8.580;2023-03-23T06:48:58;14.70;52.20
46490;DHT22;32204;49.160;8.580;2023-03-23T06:51:23;14.70;99.90
46490;DHT22;32204;49.160;8.580;2023-03-23T06:53:49;14.70;99.90
46490;DHT22;32204;49.160;8.580;2023-03-23T06:56:15;14.70;99.90
46490;DHT22;32204;49.160;8.580;2023-03-23T06:58:41;14.70;99.90
46490;DHT22;32204;49.160;8.580;2023-03-23T07:01:11;14.60;48.50
46490;DHT22;32204;49.160;8.580;2023-03-23T07:03:36;14.60;99.90
46490;DHT22;32204;49.160;8.580;2023-03-23T07:06:03;14.60;1.00
46490;DHT22;32204;49.160;8.580;2023-03-23T07:08:29;14.60;5.60
46490;DHT22;32204;49.160;8.580;2023-03-23T07:10:55;14.60;1.00
46490;DHT22;32204;49.160;8.580;2023-03-23T07:13:21;14.60;1.00
46490;DHT22;32204;49.160;8.580;2023-03-23T07:15:47;14.60;1.00
46490;DHT22;32204;49.160;8.580;2023-03-23T07:18:14;14.60;16.10
46490;DHT22;32204;49.160;8.580;2023-03-23T07:20:39;14.60;99.90
46490;DHT22;32204;49.160;8.580;2023-03-23T07:23:05;14.60;99.90
46490;DHT22;32204;49.160;8.580;2023-03-23T07:25:32;14.50;99.90
46490;DHT22;32204;49.160;8.580;2023-03-23T07:27:59;14.50;1.00
46490;DHT22;32204;49.160;8.580;2023-03-23T07:30:25;14.40;1.00
46490;DHT22;32204;49.160;8.580;2023-03-23T07:32:51;14.30;99.90
46490;DHT22;32204;49.160;8.580;2023-03-23T07:35:17;14.30;99.90
46490;DHT22;32204;49.160;8.580;2023-03-23T07:37:43;14.30;1.00
46490;DHT22;32204;49.160;8.580;2023-03-23T07:40:09;14.30;1.00
46490;DHT22;32204;49.160;8.580;2023-03-23T07:42:42;14.40;1.00
46490;DHT22;32204;49.160;8.580;2023-03-23T07:45:10;14.40;12.10
46490;DHT22;32204;49.160;8.580;2023-03-23T07:47:36;14.50;99.90
46490;DHT22;32204;49.160;8.580;2023-03-23T07:50:02;14.50;99.90
46490;DHT22;32204;49.160;8.580;2023-03-23T07:52:28;14.40;1.00
46490;DHT22;32204;49.160;8.580;2023-03-23T07:54:53;14.50;99.90
46490;DHT22;32204;49.160;8.580;2023-03-23T07:57:19;14.50;1.00
46490;DHT22;32204;49.160;8.580;2023-03-23T07:59:44;14.50;1.00
46490;DHT22;32204;49.160;8.580;2023-03-23T08:02:11;14.50;99.90
46490;DHT22;32204;49.160;8.580;2023-03-23T08:04:37;14.60;99.90
46490;DHT22;32204;49.160;8.580;2023-03-23T08:07:03;14.60;1.00
46490;DHT22;32204;49.160;8.580;2023-03-23T08:09:30;14.70;1.00
46490;DHT22;32204;49.160;8.580;2023-03-23T08:11:56;14.80;99.90
46490;DHT22;32204;49.160;8.580;2023-03-23T08:14:22;14.90;99.90
46490;DHT22;32204;49.160;8.580;2023-03-23T08:16:48;14.90;99.90
46490;DHT22;32204;49.160;8.580;2023-03-23T08:19:14;14.90;99.90
46490;DHT22;32204;49.160;8.580;2023-03-23T08:21:39;15.00;1.00
46490;DHT22;32204;49.160;8.580;2023-03-23T08:24:05;15.10;99.90
46490;DHT22;32204;49.160;8.580;2023-03-23T08:26:31;15.00;99.90
46490;DHT22;32204;49.160;8.580;2023-03-23T08:28:57;14.90;99.90
46490;DHT22;32204;49.160;8.580;2023-03-23T08:31:23;14.90;99.90
46490;DHT22;32204;49.160;8.580;2023-03-23T08:33:49;14.90;99.90
46490;DHT22;32204;49.160;8.580;2023-03-23T08:36:15;15.10;1.00
46490;DHT22;32204;49.160;8.580;2023-03-23T08:38:40;15.10;1.00
46490;DHT22;32204;49.160;8.580;2023-03-23T08:41:06;15.20;99.90
46490;DHT22;32204;49.160;8.580;2023-03-23T08:43:33;15.20;1.00
46490;DHT22;32204;49.160;8.580;2023-03-23T08:46:02;15.20;1.00
46490;DHT22;32204;49.160;8.580;2023-03-23T08:48:32;15.20;1.00
46490;DHT22;32204;49.160;8.580;2023-03-23T08:51:01;15.30;22.60
46490;DHT22;32204;49.160;8.580;2023-03-23T08:53:26;15.40;1.00
46490;DHT22;32204;49.160;8.580;2023-03-23T08:55:55;15.40;75.10
46490;DHT22;32204;49.160;8.580;2023-03-23T08:58:21;15.40;99.90
46490;DHT22;32204;49.160;8.580;2023-03-23T09:00:48;15.40;1.00
46490;DHT22;32204;49.160;8.580;2023-03-23T09:03:13;15.40;1.00
46490;DHT22;32204;49.160;8.580;2023-03-23T09:05:40;15.40;99.90
46490;DHT22;32204;49.160;8.580;2023-03-23T09:08:11;15.40;1.00
46490;DHT22;32204;49.160;8.580;2023-03-23T09:10:38;15.40;12.30
46490;DHT22;32204;49.160;8.580;2023-03-23T09:13:05;15.40;1.00
46490;DHT22;32204;49.160;8.580;2023-03-23T09:15:31;15.40;99.90
46490;DHT22;32204;49.160;8.580;2023-03-23T09:17:58;15.20;99.90
46490;DHT22;32204;49.160;8.580;2023-03-23T09:20:25;15.20;1.00
46490;DHT22;32204;49.160;8.580;2023-03-23T09:22:53;15.10;99.90
46490;DHT22;32204;49.160;8.580;2023-03-23T09:25:21;15.10;99.90
46490;DHT22;32204;49.160;8.580;2023-03-23T09:27:52;15.10;5.90
46490;DHT22;32204;49.160;8.580;2023-03-23T09:30:20;15.10;99.90
46490;DHT22;32204;49.160;8.580;2023-03-23T09:32:46;15.20;1.00
46490;DHT22;32204;49.160;8.580;2023-03-23T09:35:14;15.20;99.90
46490;DHT22;32204;49.160;8.580;2023-03-23T09:37:43;15.20;99.90
46490;DHT22;32204;49.160;8.580;2023-03-23T09:40:18;15.20;99.90
46490;DHT22;32204;49.160;8.580;2023-03-23T09:45:52;15.30;99.90
46490;DHT22;32204;49.160;8.580;2023-03-23T09:48:29;15.30;1.00
46490;DHT22;32204;49.160;8.580;2023-03-23T09:54:27;15.30;1.00
46490;DHT22;32204;49.160;8.580;2023-03-23T09:56:51;15.30;1.00
46490;DHT22;32204;49.160;8.580;2023-03-23T09:59:38;15.30;1.00
46490;DHT22;32204;49.160;8.580;2023-03-23T10:02:29;15.30;1.00
46490;DHT22;32204;49.160;8.580;2023-03-23T10:05:06;15.40;1.00
46490;DHT22;32204;49.160;8.580;2023-03-23T10:07:32;15.40;1.00
46490;DHT22;32204;49.160;8.580;2023-03-23T10:10:00;15.40;1.00
46490;DHT22;32204;49.160;8.580;2023-03-23T10:12:38;15.40;1.00
46490;DHT22;32204;49.160;8.580;2023-03-23T10:15:20;15.40;1.00
46490;DHT22;32204;49.160;8.580;2023-03-23T10:18:00;15.20;99.90
46490;DHT22;32204;49.160;8.580;2023-03-23T10:20:56;15.10;1.00
46490;DHT22;32204;49.160;8.580;2023-03-23T10:23:43;15.10;1.00
46490;DHT22;32204;49.160;8.580;2023-03-23T10:31:53;15.20;99.90
46490;DHT22;32204;49.160;8.580;2023-03-23T10:34:35;15.10;1.00
46490;DHT22;32204;49.160;8.580;2023-03-23T10:37:08;15.00;99.90
46490;DHT22;32204;49.160;8.580;2023-03-23T10:39:56;15.00;99.90
46490;DHT22;32204;49.160;8.580;2023-03-23T10:42:25;14.90;99.90
46490;DHT22;32204;49.160;8.580;2023-03-23T10:44:52;14.80;94.90
46490;DHT22;32204;49.160;8.580;2023-03-23T10:47:20;14.70;99.90
46490;DHT22;32204;49.160;8.580;2023-03-23T10:49:53;14.70;99.90
46490;DHT22;32204;49.160;8.580;2023-03-23T10:55:01;14.80;1.00
46490;DHT22;32204;49.160;8.580;2023-03-23T10:57:31;14.90;1.00
46490;DHT22;32204;49.160;8.580;2023-03-23T11:02:44;14.90;99.90
46490;DHT22;32204;49.160;8.580;2023-03-23T11:05:20;14.90;99.90
46490;DHT22;32204;49.160;8.580;2023-03-23T11:08:12;14.90;1.00
46490;DHT22;32204;49.160;8.580;2023-03-23T11:10:41;15.00;99.90
46490;DHT22;32204;49.160;8.580;2023-03-23T11:13:15;15.00;1.00
46490;DHT22;32204;49.160;8.580;2023-03-23T11:15:43;15.00;1.00
46490;DHT22;32204;49.160;8.580;2023-03-23T11:18:12;14.90;1.00
46490;DHT22;32204;49.160;8.580;2023-03-23T11:20:41;15.00;99.90
46490;DHT22;32204;49.160;8.580;2023-03-23T11:28:20;15.10;99.90
46490;DHT22;32204;49.160;8.580;2023-03-23T11:30:46;14.90;1.00
46490;DHT22;32204;49.160;8.580;2023-03-23T11:33:12;14.90;99.90
46490;DHT22;32204;49.160;8.580;2023-03-23T11:35:43;14.90;1.00
46490;DHT22;32204;49.160;8.580;2023-03-23T11:38:18;14.90;1.00
46490;DHT22;32204;49.160;8.580;2023-03-23T11:40:49;14.90;1.00
46490;DHT22;32204;49.160;8.580;2023-03-23T11:43:19;14.90;99.90
46490;DHT22;32204;49.160;8.580;2023-03-23T11:48:57;14.90;1.00
46490;DHT22;32204;49.160;8.580;2023-03-23T11:56:32;15.20;1.00
46490;DHT22;32204;49.160;8.580;2023-03-23T11:58:59;15.30;1.00
46490;DHT22;32204;49.160;8.580;2023-03-23T12:01:43;15.30;99.90
46490;DHT22;32204;49.160;8.580;2023-03-23T12:15:00;15.40;1.00
46490;DHT22;32204;49.160;8.580;2023-03-23T12:18:06;15.40;99.90
46490;DHT22;32204;49.160;8.580;2023-03-23T12:25:56;15.30;99.90
46490;DHT22;32204;49.160;8.580;2023-03-23T12:28:47;15.30;1.00
46490;DHT22;32204;49.160;8.580;2023-03-23T12:31:25;15.30;99.90
46490;DHT22;32204;49.160;8.580;2023-03-23T12:45:05;15.20;99.90
46490;DHT22;32204;49.160;8.580;2023-03-23T12:47:42;15.20;99.90
46490;DHT22;32204;49.160;8.580;2023-03-23T12:50:16;15.20;99.90
46490;DHT22;32204;49.160;8.580;2023-03-23T12:52:53;15.20;99.90
46490;DHT22;32204;49.160;8.580;2023-03-23T12:56:08;15.30;99.90
46490;DHT22;32204;49.160;8.580;2023-03-23T12:58:42;15.40;36.40
46490;DHT22;32204;49.160;8.580;2023-03-23T13:04:21;15.30;20.00
46490;DHT22;32204;49.160;8.580;2023-03-23T13:06:48;15.30;99.90
46490;DHT22;32204;49.160;8.580;2023-03-23T13:11:58;15.40;99.90
46490;DHT22;32204;49.160;8.580;2023-03-23T13:18:37;15.40;99.90
46490;DHT22;32204;49.160;8.580;2023-03-23T13:23:22;15.30;99.90
46490;DHT22;32204;49.160;8.580;2023-03-23T13:26:00;15.40;93.30
46490;DHT22;32204;49.160;8.580;2023-03-23T13:28:31;15.40;2.70
46490;DHT22;32204;49.160;8.580;2023-03-23T13:31:02;15.40;1.00
46490;DHT22;32204;49.160;8.580;2023-03-23T13:33:35;15.50;1.00
46490;DHT22;32204;49.160;8.580;2023-03-23T13:36:10;15.60;1.00
46490;DHT22;32204;49.160;8.580;2023-03-23T13:38:37;15.70;99.90
46490;DHT22;32204;49.160;8.580;2023-03-23T13:41:08;15.80;1.00
46490;DHT22;32204;49.160;8.580;2023-03-23T13:43:36;15.90;99.90
46490;DHT22;32204;49.160;8.580;2023-03-23T13:48:48;15.90;99.90
46490;DHT22;32204;49.160;8.580;2023-03-23T13:56:56;16.00;99.90
46490;DHT22;32204;49.160;8.580;2023-03-23T13:59:31;15.90;72.20
46490;DHT22;32204;49.160;8.580;2023-03-23T14:07:59;15.90;50.00
46490;DHT22;32204;49.160;8.580;2023-03-23T14:10:39;15.90;74.20
46490;DHT22;32204;49.160;8.580;2023-03-23T14:15:57;15.90;99.90
46490;DHT22;32204;49.160;8.580;2023-03-23T14:18:27;15.80;99.90
46490;DHT22;32204;49.160;8.580;2023-03-23T14:20:55;15.90;99.90
46490;DHT22;32204;49.160;8.580;2023-03-23T14:23:22;15.90;99.90
46490;DHT22;32204;49.160;8.580;2023-03-23T14:25:57;15.90;99.90
46490;DHT22;32204;49.160;8.580;2023-03-23T14:28:30;15.90;99.90
46490;DHT22;32204;49.160;8.580;2023-03-23T14:30:58;15.90;99.90
46490;DHT22;32204;49.160;8.580;2023-03-23T14:33:25;15.80;99.90
46490;DHT22;32204;49.160;8.580;2023-03-23T14:35:52;15.80;99.90
46490;DHT22;32204;49.160;8.580;2023-03-23T14:38:23;15.80;1.00
46490;DHT22;32204;49.160;8.580;2023-03-23T14:40:52;15.80;99.90
46490;DHT22;32204;49.160;8.580;2023-03-23T14:43:20;15.80;99.90
46490;DHT22;32204;49.160;8.580;2023-03-23T14:45:51;15.80;99.90
46490;DHT22;32204;49.160;8.580;2023-03-23T14:48:17;15.70;99.90
46490;DHT22;32204;49.160;8.580;2023-03-23T14:53:31;15.80;99.90
46490;DHT22;32204;49.160;8.580;2023-03-23T14:56:01;15.90;99.90
46490;DHT22;32204;49.160;8.580;2023-03-23T14:58:28;15.90;99.90
46490;DHT22;32204;49.160;8.580;2023-03-23T15:01:00;15.90;99.90
46490;DHT22;32204;49.160;8.580;2023-03-23T15:03:28;15.90;99.90
46490;DHT22;32204;49.160;8.580;2023-03-23T15:05:59;15.90;99.90
46490;DHT22;32204;49.160;8.580;2023-03-23T15:08:29;15.90;99.90
46490;DHT22;32204;49.160;8.580;2023-03-23T15:13:49;16.10;99.90
46490;DHT22;32204;49.160;8.580;2023-03-23T15:16:20;16.10;99.90
46490;DHT22;32204;49.160;8.580;2023-03-23T15:19:11;16.00;99.90
46490;DHT22;32204;49.160;8.580;2023-03-23T15:21:52;15.80;99.90
46490;DHT22;32204;49.160;8.580;2023-03-23T15:24:48;15.70;99.90
46490;DHT22;32204;49.160;8.580;2023-03-23T15:27:27;15.60;99.90
46490;DHT22;32204;49.160;8.580;2023-03-23T15:29:59;15.60;1.00
46490;DHT22;32204;49.160;8.580;2023-03-23T15:32:39;15.60;1.00
46490;DHT22;32204;49.160;8.580;2023-03-23T15:35:16;15.50;1.00
46490;DHT22;32204;49.160;8.580;2023-03-23T15:37:44;15.50;1.00
46490;DHT22;32204;49.160;8.580;2023-03-23T15:40:18;15.50;14.00
46490;DHT22;32204;49.160;8.580;2023-03-23T15:42:45;15.50;1.00
46490;DHT22;32204;49.160;8.580;2023-03-23T15:50:20;15.50;1.00
46490;DHT22;32204;49.160;8.580;2023-03-23T15:52:47;15.50;1.00
46490;DHT22;32204;49.160;8.580;2023-03-23T15:55:22;15.40;1.00
46490;DHT22;32204;49.160;8.580;2023-03-23T15:57:49;15.30;7.50
46490;DHT22;32204;49.160;8.580;2023-03-23T16:00:16;15.30;99.90
46490;DHT22;32204;49.160;8.580;2023-03-23T16:02:43;15.30;99.90
46490;DHT22;32204;49.160;8.580;2023-03-23T16:05:11;15.20;99.90
46490;DHT22;32204;49.160;8.580;2023-03-23T16:07:37;15.20;99.90
46490;DHT22;32204;49.160;8.580;2023-03-23T16:10:04;15.20;99.90
46490;DHT22;32204;49.160;8.580;2023-03-23T16:12:30;15.10;1.00
46490;DHT22;32204;49.160;8.580;2023-03-23T16:14:56;15.10;1.00
46490;DHT22;32204;49.160;8.580;2023-03-23T16:17:21;15.10;1.00
46490;DHT22;32204;49.160;8.580;2023-03-23T16:19:47;15.00;1.00
46490;DHT22;32204;49.160;8.580;2023-03-23T16:22:13;15.10;1.00
46490;DHT22;32204;49.160;8.580;2023-03-23T16:24:38;15.00;63.90
46490;DHT22;32204;49.160;8.580;2023-03-23T16:27:04;15.10;99.90
46490;DHT22;32204;49.160;8.580;2023-03-23T16:29:30;15.00;99.90
46490;DHT22;32204;49.160;8.580;2023-03-23T16:31:56;15.10;1.00
46490;DHT22;32204;49.160;8.580;2023-03-23T16:34:21;15.10;1.00
46490;DHT22;32204;49.160;8.580;2023-03-23T16:36:47;15.10;99.90
46490;DHT22;32204;49.160;8.580;2023-03-23T16:39:13;15.10;99.90
46490;DHT22;32204;49.160;8.580;2023-03-23T16:41:40;15.10;1.00
46490;DHT22;32204;49.160;8.580;2023-03-23T16:44:06;15.10;99.90
46490;DHT22;32204;49.160;8.580;2023-03-23T16:46:31;15.10;99.90
46490;DHT22;32204;49.160;8.580;2023-03-23T16:48:57;15.20;99.90
46490;DHT22;32204;49.160;8.580;2023-03-23T16:51:23;15.20;1.00
46490;DHT22;32204;49.160;8.580;2023-03-23T16:53:48;15.20;1.00
46490;DHT22;32204;49.160;8.580;2023-03-23T16:56:14;15.20;1.00
46490;DHT22;32204;49.160;8.580;2023-03-23T16:58:40;15.20;1.00
46490;DHT22;32204;49.160;8.580;2023-03-23T17:01:07;15.20;1.00
46490;DHT22;32204;49.160;8.580;2023-03-23T17:03:32;15.20;1.00
46490;DHT22;32204;49.160;8.580;2023-03-23T17:05:59;15.20;1.00
46490;DHT22;32204;49.160;8.580;2023-03-23T17:08:25;15.20;1.00
46490;DHT22;32204;49.160;8.580;2023-03-23T17:10:51;15.40;1.00
46490;DHT22;32204;49.160;8.580;2023-03-23T17:13:19;15.40;99.90
46490;DHT22;32204;49.160;8.580;2023-03-23T17:15:45;15.40;99.90
46490;DHT22;32204;49.160;8.580;2023-03-23T17:18:11;15.40;99.90
46490;DHT22;32204;49.160;8.580;2023-03-23T17:20:37;15.40;99.90
46490;DHT22;32204;49.160;8.580;2023-03-23T17:23:03;15.40;99.90
46490;DHT22;32204;49.160;8.580;2023-03-23T17:25:29;15.40;99.90
46490;DHT22;32204;49.160;8.580;2023-03-23T17:27:56;15.30;1.00
46490;DHT22;32204;49.160;8.580;2023-03-23T17:30:22;15.40;1.00
46490;DHT22;32204;49.160;8.580;2023-03-23T17:32:48;15.40;1.00
46490;DHT22;32204;49.160;8.580;2023-03-23T17:35:14;15.30;1.00
46490;DHT22;32204;49.160;8.580;2023-03-23T17:37:40;15.30;1.00
46490;DHT22;32204;49.160;8.580;2023-03-23T17:40:08;15.30;1.00
46490;DHT22;32204;49.160;8.580;2023-03-23T17:42:38;15.30;99.90
46490;DHT22;32204;49.160;8.580;2023-03-23T17:45:05;15.30;1.00